sensor_id;sensor_type;location;lat;lon;timestamp;temperature;humidity
3256;DHT22;1640;48.504;9.224;2024-03-07T00:02:15;6.30;99.90
3256;DHT22;1640;48.504;9.224;2024-03-07T00:04:43;6.30;99.90
3256;DHT22;1640;48.504;9.224;2024-03-07T00:07:10;6.40;99.90
3256;DHT22;1640;48.504;9.224;2024-03-07T00:09:38;6.40;99.90
3256;DHT22;1640;48.504;9.224;2024-03-07T00:12:06;6.40;99.90
3256;DHT22;1640;48.504;9.224;2024-03-07T00:14:34;6.40;99.90
3256;DHT22;1640;48.504;9.224;2024-03-07T00:17:02;6.30;99.90
3256;DHT22;1640;48.504;9.224;2024-03-07T00:19:31;6.30;99.90
3256;DHT22;1640;48.504;9.224;2024-03-07T00:21:59;6.30;99.90
3256;DHT22;1640;48.504;9.224;2024-03-07T00:24:26;6.30;99.90
3256;DHT22;1640;48.504;9.224;2024-03-07T00:26:54;6.20;99.90
3256;DHT22;1640;48.504;9.224;2024-03-07T00:29:23;6.20;99.90
3256;DHT22;1640;48.504;9.224;2024-03-07T00:31:50;6.10;99.90
3256;DHT22;1640;48.504;9.224;2024-03-07T00:34:18;6.20;99.90
3256;DHT22;1640;48.504;9.224;2024-03-07T00:36:47;6.20;99.90
3256;DHT22;1640;48.504;9.224;2024-03-07T00:39:14;6.20;99.90
3256;DHT22;1640;48.504;9.224;2024-03-07T00:41:42;6.10;99.90
3256;DHT22;1640;48.504;9.224;2024-03-07T00:44:09;6.10;99.90
3256;DHT22;1640;48.504;9.224;2024-03-07T00:46:37;6.10;99.90
3256;DHT22;1640;48.504;9.224;2024-03-07T00:49:04;6.20;99.90
3256;DHT22;1640;48.504;9.224;2024-03-07T00:51:32;6.00;99.90
3256;DHT22;1640;48.504;9.224;2024-03-07T00:54:01;5.90;99.90
3256;DHT22;1640;48.504;9.224;2024-03-07T00:56:28;5.90;99.90
3256;DHT22;1640;48.504;9.224;2024-03-07T00:58:55;5.80;99.90
3256;DHT22;1640;48.504;9.224;2024-03-07T01:01:22;5.90;99.90
3256;DHT22;1640;48.504;9.224;2024-03-07T01:03:50;5.80;99.90
3256;DHT22;1640;48.504;9.224;2024-03-07T01:06:17;5.80;99.90
3256;DHT22;1640;48.504;9.224;2024-03-07T01:08:46;5.80;99.90
3256;DHT22;1640;48.504;9.224;2024-03-07T01:11:14;5.70;99.90
3256;DHT22;1640;48.504;9.224;2024-03-07T01:13:42;5.60;99.90
3256;DHT22;1640;48.504;9.224;2024-03-07T01:16:10;5.70;99.90
3256;DHT22;1640;48.504;9.224;2024-03-07T01:18:37;5.70;99.90
3256;DHT22;1640;48.504;9.224;2024-03-07T01:21:05;5.70;99.90
3256;DHT22;1640;48.504;9.224;2024-03-07T01:23:34;5.70;99.90
3256;DHT22;1640;48.504;9.224;2024-03-07T01:26:01;5.70;99.90
3256;DHT22;1640;48.504;9.224;2024-03-07T01:28:30;5.60;99.90
3256;DHT22;1640;48.504;9.224;2024-03-07T01:30:58;5.60;99.90
3256;DHT22;1640;48.504;9.224;2024-03-07T01:33:25;5.60;99.90
3256;DHT22;1640;48.504;9.224;2024-03-07T01:35:53;5.60;99.90
3256;DHT22;1640;48.504;9.224;2024-03-07T01:38:20;5.60;99.90
3256;DHT22;1640;48.504;9.224;2024-03-07T01:40:48;5.60;99.90
3256;DHT22;1640;48.504;9.224;2024-03-07T01:43:15;5.60;99.90
3256;DHT22;1640;48.504;9.224;2024-03-07T01:45:45;5.60;99.90
3256;DHT22;1640;48.504;9.224;2024-03-07T01:48:20;5.60;99.90
3256;DHT22;1640;48.504;9.224;2024-03-07T01:50:51;5.60;99.90
3256;DHT22;1640;48.504;9.224;2024-03-07T01:53:19;5.50;99.90
3256;DHT22;1640;48.504;9.224;2024-03-07T01:55:46;5.50;99.90
3256;DHT22;1640;48.504;9.224;2024-03-07T01:58:18;5.40;99.90
3256;DHT22;1640;48.504;9.224;2024-03-07T02:00:47;5.30;99.90
3256;DHT22;1640;48.504;9.224;2024-03-07T02:03:14;5.20;99.90
3256;DHT22;1640;48.504;9.224;2024-03-07T02:05:42;5.10;99.90
3256;DHT22;1640;48.504;9.224;2024-03-07T02:08:10;5.00;99.90
3256;DHT22;1640;48.504;9.224;2024-03-07T02:10:38;5.00;99.90
3256;DHT22;1640;48.504;9.224;2024-03-07T02:13:05;4.90;99.90
3256;DHT22;1640;48.504;9.224;2024-03-07T02:15:33;4.80;99.90
3256;DHT22;1640;48.504;9.224;2024-03-07T02:18:01;4.70;99.90
3256;DHT22;1640;48.504;9.224;2024-03-07T02:20:29;4.70;99.90
3256;DHT22;1640;48.504;9.224;2024-03-07T02:22:58;4.70;99.90
3256;DHT22;1640;48.504;9.224;2024-03-07T02:25:25;4.70;99.90
3256;DHT22;1640;48.504;9.224;2024-03-07T02:27:53;4.70;99.90
3256;DHT22;1640;48.504;9.224;2024-03-07T02:30:21;4.50;99.90
3256;DHT22;1640;48.504;9.224;2024-03-07T02:32:48;4.50;99.90
3256;DHT22;1640;48.504;9.224;2024-03-07T02:35:19;4.50;99.90
3256;DHT22;1640;48.504;9.224;2024-03-07T02:37:47;4.40;99.90
3256;DHT22;1640;48.504;9.224;2024-03-07T02:40:16;4.40;99.90
3256;DHT22;1640;48.504;9.224;2024-03-07T02:42:43;4.30;99.90
3256;DHT22;1640;48.504;9.224;2024-03-07T02:45:10;4.20;99.90
3256;DHT22;1640;48.504;9.224;2024-03-07T02:47:40;4.20;99.90
3256;DHT22;1640;48.504;9.224;2024-03-07T02:50:10;4.10;99.90
3256;DHT22;1640;48.504;9.224;2024-03-07T02:52:37;4.10;99.90
3256;DHT22;1640;48.504;9.224;2024-03-07T02:55:05;4.10;99.90
3256;DHT22;1640;48.504;9.224;2024-03-07T02:57:37;4.10;99.90
3256;DHT22;1640;48.504;9.224;2024-03-07T03:00:06;4.10;99.90
3256;DHT22;1640;48.504;9.224;2024-03-07T03:02:46;4.00;99.90
3256;DHT22;1640;48.504;9.224;2024-03-07T03:05:14;4.00;99.90
3256;DHT22;1640;48.504;9.224;2024-03-07T03:07:41;3.90;99.90
3256;DHT22;1640;48.504;9.224;2024-03-07T03:10:08;3.80;99.90
3256;DHT22;1640;48.504;9.224;2024-03-07T03:12:38;3.70;99.90
3256;DHT22;1640;48.504;9.224;2024-03-07T03:15:07;3.70;99.90
3256;DHT22;1640;48.504;9.224;2024-03-07T03:17:37;3.60;99.90
3256;DHT22;1640;48.504;9.224;2024-03-07T03:20:06;3.60;99.90
3256;DHT22;1640;48.504;9.224;2024-03-07T03:22:41;3.60;99.90
3256;DHT22;1640;48.504;9.224;2024-03-07T03:25:10;3.60;99.90
3256;DHT22;1640;48.504;9.224;2024-03-07T03:27:39;3.50;99.90
3256;DHT22;1640;48.504;9.224;2024-03-07T03:30:08;3.50;99.90
3256;DHT22;1640;48.504;9.224;2024-03-07T03:32:39;3.50;99.90
3256;DHT22;1640;48.504;9.224;2024-03-07T03:35:07;3.50;99.90
3256;DHT22;1640;48.504;9.224;2024-03-07T03:37:40;3.60;99.90
3256;DHT22;1640;48.504;9.224;2024-03-07T03:40:10;3.70;99.90
3256;DHT22;1640;48.504;9.224;2024-03-07T03:42:41;3.70;99.90
3256;DHT22;1640;48.504;9.224;2024-03-07T03:45:09;3.80;99.90
3256;DHT22;1640;48.504;9.224;2024-03-07T03:47:41;3.80;99.90
3256;DHT22;1640;48.504;9.224;2024-03-07T03:50:10;3.80;99.90
3256;DHT22;1640;48.504;9.224;2024-03-07T03:52:39;3.80;99.90
3256;DHT22;1640;48.504;9.224;2024-03-07T03:55:08;3.80;99.90
3256;DHT22;1640;48.504;9.224;2024-03-07T03:57:37;3.80;99.90
3256;DHT22;1640;48.504;9.224;2024-03-07T04:00:08;3.80;99.90
3256;DHT22;1640;48.504;9.224;2024-03-07T04:02:39;3.80;99.90
3256;DHT22;1640;48.504;9.224;2024-03-07T04:05:08;3.70;99.90
3256;DHT22;1640;48.504;9.224;2024-03-07T04:07:36;3.70;99.90
3256;DHT22;1640;48.504;9.224;2024-03-07T04:10:05;3.80;99.90
3256;DHT22;1640;48.504;9.224;2024-03-07T04:12:33;3.80;99.90
3256;DHT22;1640;48.504;9.224;2024-03-07T04:15:02;3.70;99.90
3256;DHT22;1640;48.504;9.224;2024-03-07T04:17:31;3.70;99.90
3256;DHT22;1640;48.504;9.224;2024-03-07T04:19:59;3.70;99.90
3256;DHT22;1640;48.504;9.224;2024-03-07T04:22:27;3.70;99.90
3256;DHT22;1640;48.504;9.224;2024-03-07T04:24:55;3.70;99.90
3256;DHT22;1640;48.504;9.224;2024-03-07T04:27:22;3.70;99.90
3256;DHT22;1640;48.504;9.224;2024-03-07T04:29:49;3.70;99.90
3256;DHT22;1640;48.504;9.224;2024-03-07T04:32:17;3.80;99.90
3256;DHT22;1640;48.504;9.224;2024-03-07T04:34:46;3.70;99.90
3256;DHT22;1640;48.504;9.224;2024-03-07T04:37:14;3.70;99.90
3256;DHT22;1640;48.504;9.224;2024-03-07T04:39:41;3.70;99.90
3256;DHT22;1640;48.504;9.224;2024-03-07T04:42:08;3.60;99.90
3256;DHT22;1640;48.504;9.224;2024-03-07T04:44:37;3.70;99.90
3256;DHT22;1640;48.504;9.224;2024-03-07T04:47:05;3.60;99.90
3256;DHT22;1640;48.504;9.224;2024-03-07T04:49:34;3.70;99.90
3256;DHT22;1640;48.504;9.224;2024-03-07T04:52:03;3.70;99.90
3256;DHT22;1640;48.504;9.224;2024-03-07T04:54:32;3.70;99.90
3256;DHT22;1640;48.504;9.224;2024-03-07T04:57:01;3.80;99.90
3256;DHT22;1640;48.504;9.224;2024-03-07T04:59:29;3.90;99.90
3256;DHT22;1640;48.504;9.224;2024-03-07T05:01:57;3.90;99.90
3256;DHT22;1640;48.504;9.224;2024-03-07T05:04:24;3.90;99.90
3256;DHT22;1640;48.504;9.224;2024-03-07T05:06:55;3.90;99.90
3256;DHT22;1640;48.504;9.224;2024-03-07T05:09:25;3.90;99.90
3256;DHT22;1640;48.504;9.224;2024-03-07T05:11:54;4.00;99.90
3256;DHT22;1640;48.504;9.224;2024-03-07T05:14:22;4.00;99.90
3256;DHT22;1640;48.504;9.224;2024-03-07T05:16:50;3.90;99.90
3256;DHT22;1640;48.504;9.224;2024-03-07T05:19:31;3.80;99.90
3256;DHT22;1640;48.504;9.224;2024-03-07T05:21:59;3.70;99.90
3256;DHT22;1640;48.504;9.224;2024-03-07T05:24:28;3.70;99.90
3256;DHT22;1640;48.504;9.224;2024-03-07T05:26:55;3.70;99.90
3256;DHT22;1640;48.504;9.224;2024-03-07T05:29:23;3.70;99.90
3256;DHT22;1640;48.504;9.224;2024-03-07T05:31:50;3.70;99.90
3256;DHT22;1640;48.504;9.224;2024-03-07T05:34:18;3.70;99.90
3256;DHT22;1640;48.504;9.224;2024-03-07T05:36:46;3.70;99.90
3256;DHT22;1640;48.504;9.224;2024-03-07T05:39:14;3.70;99.90
3256;DHT22;1640;48.504;9.224;2024-03-07T05:41:44;3.60;99.90
3256;DHT22;1640;48.504;9.224;2024-03-07T05:44:12;3.70;99.90
3256;DHT22;1640;48.504;9.224;2024-03-07T05:46:40;3.70;99.90
3256;DHT22;1640;48.504;9.224;2024-03-07T05:49:12;3.70;99.90
3256;DHT22;1640;48.504;9.224;2024-03-07T05:51:39;3.80;99.90
3256;DHT22;1640;48.504;9.224;2024-03-07T05:54:08;3.80;99.90
3256;DHT22;1640;48.504;9.224;2024-03-07T05:56:35;3.80;99.90
3256;DHT22;1640;48.504;9.224;2024-03-07T05:59:04;3.90;99.90
3256;DHT22;1640;48.504;9.224;2024-03-07T06:01:33;3.80;99.90
3256;DHT22;1640;48.504;9.224;2024-03-07T06:04:01;3.70;99.90
3256;DHT22;1640;48.504;9.224;2024-03-07T06:06:29;3.60;99.90
3256;DHT22;1640;48.504;9.224;2024-03-07T06:08:58;3.60;99.90
3256;DHT22;1640;48.504;9.224;2024-03-07T06:11:25;3.60;99.90
3256;DHT22;1640;48.504;9.224;2024-03-07T06:13:52;3.60;99.90
3256;DHT22;1640;48.504;9.224;2024-03-07T06:16:21;3.60;99.90
3256;DHT22;1640;48.504;9.224;2024-03-07T06:18:48;3.50;99.90
3256;DHT22;1640;48.504;9.224;2024-03-07T06:21:18;3.40;99.90
3256;DHT22;1640;48.504;9.224;2024-03-07T06:23:46;3.40;99.90
3256;DHT22;1640;48.504;9.224;2024-03-07T06:26:14;3.40;99.90
3256;DHT22;1640;48.504;9.224;2024-03-07T06:28:52;3.40;99.90
3256;DHT22;1640;48.504;9.224;2024-03-07T06:31:21;3.40;99.90
3256;DHT22;1640;48.504;9.224;2024-03-07T06:33:48;3.40;99.90
3256;DHT22;1640;48.504;9.224;2024-03-07T06:36:16;3.30;99.90
3256;DHT22;1640;48.504;9.224;2024-03-07T06:38:43;3.30;99.90
3256;DHT22;1640;48.504;9.224;2024-03-07T06:41:10;3.40;99.90
3256;DHT22;1640;48.504;9.224;2024-03-07T06:43:38;3.40;99.90
3256;DHT22;1640;48.504;9.224;2024-03-07T06:46:05;3.40;99.90
3256;DHT22;1640;48.504;9.224;2024-03-07T06:48:36;3.30;99.90
3256;DHT22;1640;48.504;9.224;2024-03-07T06:51:04;3.40;99.90
3256;DHT22;1640;48.504;9.224;2024-03-07T06:53:32;3.30;99.90
3256;DHT22;1640;48.504;9.224;2024-03-07T06:55:59;3.30;99.90
3256;DHT22;1640;48.504;9.224;2024-03-07T06:58:27;3.40;99.90
3256;DHT22;1640;48.504;9.224;2024-03-07T07:00:54;3.40;99.90
3256;DHT22;1640;48.504;9.224;2024-03-07T07:03:22;3.40;99.90
3256;DHT22;1640;48.504;9.224;2024-03-07T07:05:51;3.40;99.90
3256;DHT22;1640;48.504;9.224;2024-03-07T07:08:18;3.50;99.90
3256;DHT22;1640;48.504;9.224;2024-03-07T07:10:46;3.60;99.90
3256;DHT22;1640;48.504;9.224;2024-03-07T07:13:14;3.60;99.90
3256;DHT22;1640;48.504;9.224;2024-03-07T07:15:42;3.60;99.90
3256;DHT22;1640;48.504;9.224;2024-03-07T07:18:10;3.60;99.90
3256;DHT22;1640;48.504;9.224;2024-03-07T07:20:39;3.60;99.90
3256;DHT22;1640;48.504;9.224;2024-03-07T07:23:08;3.60;99.90
3256;DHT22;1640;48.504;9.224;2024-03-07T07:25:35;3.60;99.90
3256;DHT22;1640;48.504;9.224;2024-03-07T07:28:03;3.60;99.90
3256;DHT22;1640;48.504;9.224;2024-03-07T07:30:31;3.60;99.90
3256;DHT22;1640;48.504;9.224;2024-03-07T07:32:59;3.60;99.90
3256;DHT22;1640;48.504;9.224;2024-03-07T07:35:26;3.50;99.90
3256;DHT22;1640;48.504;9.224;2024-03-07T07:37:54;3.60;99.90
3256;DHT22;1640;48.504;9.224;2024-03-07T07:40:23;3.60;99.90
3256;DHT22;1640;48.504;9.224;2024-03-07T07:42:53;3.70;99.90
3256;DHT22;1640;48.504;9.224;2024-03-07T07:45:22;3.80;99.90
3256;DHT22;1640;48.504;9.224;2024-03-07T07:47:51;3.90;99.90
3256;DHT22;1640;48.504;9.224;2024-03-07T07:50:20;3.90;99.90
3256;DHT22;1640;48.504;9.224;2024-03-07T07:52:48;4.00;99.90
3256;DHT22;1640;48.504;9.224;2024-03-07T07:55:17;3.90;99.90
3256;DHT22;1640;48.504;9.224;2024-03-07T07:57:48;3.90;99.90
3256;DHT22;1640;48.504;9.224;2024-03-07T08:00:16;3.90;99.90
3256;DHT22;1640;48.504;9.224;2024-03-07T08:02:50;4.10;99.90
3256;DHT22;1640;48.504;9.224;2024-03-07T08:05:18;4.10;99.90
3256;DHT22;1640;48.504;9.224;2024-03-07T08:07:46;4.00;99.90
3256;DHT22;1640;48.504;9.224;2024-03-07T08:10:14;4.00;99.90
3256;DHT22;1640;48.504;9.224;2024-03-07T08:12:42;4.10;99.90
3256;DHT22;1640;48.504;9.224;2024-03-07T08:15:12;4.00;99.90
3256;DHT22;1640;48.504;9.224;2024-03-07T08:17:41;4.10;99.90
3256;DHT22;1640;48.504;9.224;2024-03-07T08:20:14;4.10;99.90
3256;DHT22;1640;48.504;9.224;2024-03-07T08:22:42;4.20;99.90
3256;DHT22;1640;48.504;9.224;2024-03-07T08:25:10;4.10;99.90
3256;DHT22;1640;48.504;9.224;2024-03-07T08:27:39;4.10;99.90
3256;DHT22;1640;48.504;9.224;2024-03-07T08:30:08;4.00;99.90
3256;DHT22;1640;48.504;9.224;2024-03-07T08:32:40;4.00;99.90
3256;DHT22;1640;48.504;9.224;2024-03-07T08:35:08;4.10;99.90
3256;DHT22;1640;48.504;9.224;2024-03-07T08:37:38;4.20;99.90
3256;DHT22;1640;48.504;9.224;2024-03-07T08:40:07;4.30;99.90
3256;DHT22;1640;48.504;9.224;2024-03-07T08:42:36;4.40;99.90
3256;DHT22;1640;48.504;9.224;2024-03-07T08:45:04;4.50;99.90
3256;DHT22;1640;48.504;9.224;2024-03-07T08:47:32;4.50;99.90
3256;DHT22;1640;48.504;9.224;2024-03-07T08:50:01;4.50;99.90
3256;DHT22;1640;48.504;9.224;2024-03-07T08:52:32;4.50;99.90
3256;DHT22;1640;48.504;9.224;2024-03-07T08:55:00;4.60;99.90
3256;DHT22;1640;48.504;9.224;2024-03-07T08:57:27;4.60;99.90
3256;DHT22;1640;48.504;9.224;2024-03-07T08:59:55;4.70;99.90
3256;DHT22;1640;48.504;9.224;2024-03-07T09:02:22;4.70;99.90
3256;DHT22;1640;48.504;9.224;2024-03-07T09:04:50;4.80;99.90
3256;DHT22;1640;48.504;9.224;2024-03-07T09:07:19;4.90;99.90
3256;DHT22;1640;48.504;9.224;2024-03-07T09:09:46;4.80;99.90
3256;DHT22;1640;48.504;9.224;2024-03-07T09:12:14;4.80;99.90
3256;DHT22;1640;48.504;9.224;2024-03-07T09:14:41;4.90;99.90
3256;DHT22;1640;48.504;9.224;2024-03-07T09:17:08;4.90;99.90
3256;DHT22;1640;48.504;9.224;2024-03-07T09:19:36;4.90;99.90
3256;DHT22;1640;48.504;9.224;2024-03-07T09:22:03;5.00;99.90
3256;DHT22;1640;48.504;9.224;2024-03-07T09:24:35;5.00;99.90
3256;DHT22;1640;48.504;9.224;2024-03-07T09:27:03;5.00;99.90
3256;DHT22;1640;48.504;9.224;2024-03-07T09:29:32;5.10;99.90
3256;DHT22;1640;48.504;9.224;2024-03-07T09:31:59;5.20;99.90
3256;DHT22;1640;48.504;9.224;2024-03-07T09:34:28;5.30;99.90
3256;DHT22;1640;48.504;9.224;2024-03-07T09:36:56;5.50;99.90
3256;DHT22;1640;48.504;9.224;2024-03-07T09:39:25;5.70;99.90
3256;DHT22;1640;48.504;9.224;2024-03-07T09:41:54;5.80;99.90
3256;DHT22;1640;48.504;9.224;2024-03-07T09:44:23;5.90;99.90
3256;DHT22;1640;48.504;9.224;2024-03-07T09:46:54;6.00;99.90
3256;DHT22;1640;48.504;9.224;2024-03-07T09:49:22;6.10;99.90
3256;DHT22;1640;48.504;9.224;2024-03-07T09:51:51;6.20;99.90
3256;DHT22;1640;48.504;9.224;2024-03-07T09:54:20;6.30;99.90
3256;DHT22;1640;48.504;9.224;2024-03-07T09:56:53;6.30;99.90
3256;DHT22;1640;48.504;9.224;2024-03-07T09:59:24;6.20;99.90
3256;DHT22;1640;48.504;9.224;2024-03-07T10:01:54;6.40;99.90
3256;DHT22;1640;48.504;9.224;2024-03-07T10:04:29;6.30;99.90
3256;DHT22;1640;48.504;9.224;2024-03-07T10:06:59;6.30;99.90
3256;DHT22;1640;48.504;9.224;2024-03-07T10:09:27;6.20;99.90
3256;DHT22;1640;48.504;9.224;2024-03-07T10:11:58;6.30;99.90
3256;DHT22;1640;48.504;9.224;2024-03-07T10:14:26;6.40;99.90
3256;DHT22;1640;48.504;9.224;2024-03-07T10:16:53;6.40;99.90
3256;DHT22;1640;48.504;9.224;2024-03-07T10:19:22;6.40;99.90
3256;DHT22;1640;48.504;9.224;2024-03-07T10:21:50;6.50;99.90
3256;DHT22;1640;48.504;9.224;2024-03-07T10:24:24;6.70;99.90
3256;DHT22;1640;48.504;9.224;2024-03-07T10:26:51;6.90;99.90
3256;DHT22;1640;48.504;9.224;2024-03-07T10:29:22;6.90;99.90
3256;DHT22;1640;48.504;9.224;2024-03-07T10:31:49;7.00;99.90
3256;DHT22;1640;48.504;9.224;2024-03-07T10:34:17;6.80;99.90
3256;DHT22;1640;48.504;9.224;2024-03-07T10:36:44;6.80;99.90
3256;DHT22;1640;48.504;9.224;2024-03-07T10:39:12;6.80;99.90
3256;DHT22;1640;48.504;9.224;2024-03-07T10:41:45;6.70;99.90
3256;DHT22;1640;48.504;9.224;2024-03-07T10:44:20;6.90;99.90
3256;DHT22;1640;48.504;9.224;2024-03-07T10:46:52;7.10;99.90
3256;DHT22;1640;48.504;9.224;2024-03-07T10:49:21;7.30;0.50
3256;DHT22;1640;48.504;9.224;2024-03-07T10:52:02;7.40;4.80
3256;DHT22;1640;48.504;9.224;2024-03-07T10:54:36;7.30;10.30
3256;DHT22;1640;48.504;9.224;2024-03-07T10:57:20;7.10;17.10
3256;DHT22;1640;48.504;9.224;2024-03-07T10:59:56;7.00;23.00
3256;DHT22;1640;48.504;9.224;2024-03-07T11:02:32;7.00;15.80
3256;DHT22;1640;48.504;9.224;2024-03-07T11:05:01;7.10;22.40
3256;DHT22;1640;48.504;9.224;2024-03-07T11:07:34;7.00;25.20
3256;DHT22;1640;48.504;9.224;2024-03-07T11:10:05;6.90;16.50
3256;DHT22;1640;48.504;9.224;2024-03-07T11:12:38;7.10;15.20
3256;DHT22;1640;48.504;9.224;2024-03-07T11:15:09;7.20;16.10
3256;DHT22;1640;48.504;9.224;2024-03-07T11:17:41;7.20;20.50
3256;DHT22;1640;48.504;9.224;2024-03-07T11:20:18;7.30;23.10
3256;DHT22;1640;48.504;9.224;2024-03-07T11:22:47;7.40;25.80
3256;DHT22;1640;48.504;9.224;2024-03-07T11:25:18;7.80;29.10
3256;DHT22;1640;48.504;9.224;2024-03-07T11:27:52;8.20;31.60
3256;DHT22;1640;48.504;9.224;2024-03-07T11:30:23;8.50;47.40
3256;DHT22;1640;48.504;9.224;2024-03-07T11:32:51;8.80;52.40
3256;DHT22;1640;48.504;9.224;2024-03-07T11:35:20;9.00;61.00
3256;DHT22;1640;48.504;9.224;2024-03-07T11:37:56;9.10;64.50
3256;DHT22;1640;48.504;9.224;2024-03-07T11:40:42;9.00;67.50
3256;DHT22;1640;48.504;9.224;2024-03-07T11:43:11;9.00;69.90
3256;DHT22;1640;48.504;9.224;2024-03-07T11:45:40;8.80;65.70
3256;DHT22;1640;48.504;9.224;2024-03-07T11:48:11;9.00;64.20
3256;DHT22;1640;48.504;9.224;2024-03-07T11:50:42;8.80;67.60
3256;DHT22;1640;48.504;9.224;2024-03-07T11:53:10;8.60;63.00
3256;DHT22;1640;48.504;9.224;2024-03-07T11:55:39;8.40;62.70
3256;DHT22;1640;48.504;9.224;2024-03-07T11:58:15;8.50;62.40
3256;DHT22;1640;48.504;9.224;2024-03-07T12:00:45;8.70;61.70
3256;DHT22;1640;48.504;9.224;2024-03-07T12:03:13;8.60;64.70
3256;DHT22;1640;48.504;9.224;2024-03-07T12:05:43;8.40;60.90
3256;DHT22;1640;48.504;9.224;2024-03-07T12:08:11;8.50;62.40
3256;DHT22;1640;48.504;9.224;2024-03-07T12:10:40;8.60;64.20
3256;DHT22;1640;48.504;9.224;2024-03-07T12:13:09;8.70;63.30
3256;DHT22;1640;48.504;9.224;2024-03-07T12:15:39;8.80;64.70
3256;DHT22;1640;48.504;9.224;2024-03-07T12:18:09;8.30;59.20
3256;DHT22;1640;48.504;9.224;2024-03-07T12:20:37;8.10;52.70
3256;DHT22;1640;48.504;9.224;2024-03-07T12:23:06;8.10;52.10
3256;DHT22;1640;48.504;9.224;2024-03-07T12:25:35;8.00;49.70
3256;DHT22;1640;48.504;9.224;2024-03-07T12:28:04;8.10;49.70
3256;DHT22;1640;48.504;9.224;2024-03-07T12:30:34;8.10;51.40
3256;DHT22;1640;48.504;9.224;2024-03-07T12:33:02;8.00;50.50
3256;DHT22;1640;48.504;9.224;2024-03-07T12:35:34;7.70;48.00
3256;DHT22;1640;48.504;9.224;2024-03-07T12:38:03;7.60;42.20
3256;DHT22;1640;48.504;9.224;2024-03-07T12:40:30;7.60;44.50
3256;DHT22;1640;48.504;9.224;2024-03-07T12:43:00;7.70;40.70
3256;DHT22;1640;48.504;9.224;2024-03-07T12:45:29;7.70;41.30
3256;DHT22;1640;48.504;9.224;2024-03-07T12:47:59;7.70;43.20
3256;DHT22;1640;48.504;9.224;2024-03-07T12:50:30;7.70;42.20
3256;DHT22;1640;48.504;9.224;2024-03-07T12:53:02;7.80;42.30
3256;DHT22;1640;48.504;9.224;2024-03-07T12:55:31;8.00;43.40
3256;DHT22;1640;48.504;9.224;2024-03-07T12:57:59;8.10;47.60
3256;DHT22;1640;48.504;9.224;2024-03-07T13:00:26;8.10;44.20
3256;DHT22;1640;48.504;9.224;2024-03-07T13:02:56;8.20;50.10
3256;DHT22;1640;48.504;9.224;2024-03-07T13:05:23;8.10;47.80
3256;DHT22;1640;48.504;9.224;2024-03-07T13:07:52;8.20;50.80
3256;DHT22;1640;48.504;9.224;2024-03-07T13:10:20;8.10;48.90
3256;DHT22;1640;48.504;9.224;2024-03-07T13:12:50;8.00;45.30
3256;DHT22;1640;48.504;9.224;2024-03-07T13:15:18;8.00;36.50
3256;DHT22;1640;48.504;9.224;2024-03-07T13:17:48;8.10;41.00
3256;DHT22;1640;48.504;9.224;2024-03-07T13:20:18;8.10;45.30
3256;DHT22;1640;48.504;9.224;2024-03-07T13:22:48;8.00;40.90
3256;DHT22;1640;48.504;9.224;2024-03-07T13:25:19;8.10;41.30
3256;DHT22;1640;48.504;9.224;2024-03-07T13:27:55;8.20;39.40
3256;DHT22;1640;48.504;9.224;2024-03-07T13:30:23;8.40;40.40
3256;DHT22;1640;48.504;9.224;2024-03-07T13:32:54;8.50;45.60
3256;DHT22;1640;48.504;9.224;2024-03-07T13:35:22;8.50;47.80
3256;DHT22;1640;48.504;9.224;2024-03-07T13:37:51;8.70;50.60
3256;DHT22;1640;48.504;9.224;2024-03-07T13:40:20;8.80;55.90
3256;DHT22;1640;48.504;9.224;2024-03-07T13:42:53;8.90;52.10
3256;DHT22;1640;48.504;9.224;2024-03-07T13:45:22;9.00;52.30
3256;DHT22;1640;48.504;9.224;2024-03-07T13:47:49;8.90;57.00
3256;DHT22;1640;48.504;9.224;2024-03-07T13:50:19;9.00;56.20
3256;DHT22;1640;48.504;9.224;2024-03-07T13:52:48;8.80;57.30
3256;DHT22;1640;48.504;9.224;2024-03-07T13:55:56;8.70;64.90
3256;DHT22;1640;48.504;9.224;2024-03-07T13:58:54;8.80;64.60
3256;DHT22;1640;48.504;9.224;2024-03-07T14:01:34;8.80;69.80
3256;DHT22;1640;48.504;9.224;2024-03-07T14:04:51;8.80;66.90
3256;DHT22;1640;48.504;9.224;2024-03-07T14:07:47;8.80;71.30
3256;DHT22;1640;48.504;9.224;2024-03-07T14:10:44;9.00;70.20
3256;DHT22;1640;48.504;9.224;2024-03-07T14:13:33;9.20;72.10
3256;DHT22;1640;48.504;9.224;2024-03-07T14:22:47;8.90;74.40
3256;DHT22;1640;48.504;9.224;2024-03-07T14:25:41;8.80;73.20
3256;DHT22;1640;48.504;9.224;2024-03-07T14:28:31;8.70;74.10
3256;DHT22;1640;48.504;9.224;2024-03-07T14:31:03;8.80;71.50
3256;DHT22;1640;48.504;9.224;2024-03-07T14:33:50;9.00;71.20
3256;DHT22;1640;48.504;9.224;2024-03-07T14:36:35;9.00;73.50
3256;DHT22;1640;48.504;9.224;2024-03-07T14:39:03;8.70;70.60
3256;DHT22;1640;48.504;9.224;2024-03-07T14:41:45;8.90;71.10
3256;DHT22;1640;48.504;9.224;2024-03-07T14:44:14;8.90;69.80
3256;DHT22;1640;48.504;9.224;2024-03-07T14:46:42;9.20;72.10
3256;DHT22;1640;48.504;9.224;2024-03-07T14:49:15;9.10;74.40
3256;DHT22;1640;48.504;9.224;2024-03-07T14:51:44;9.10;74.40
3256;DHT22;1640;48.504;9.224;2024-03-07T14:54:13;9.00;74.40
3256;DHT22;1640;48.504;9.224;2024-03-07T14:56:40;9.00;73.80
3256;DHT22;1640;48.504;9.224;2024-03-07T14:59:08;9.20;74.10
3256;DHT22;1640;48.504;9.224;2024-03-07T15:01:35;9.10;74.60
3256;DHT22;1640;48.504;9.224;2024-03-07T15:04:03;8.90;75.10
3256;DHT22;1640;48.504;9.224;2024-03-07T15:06:35;8.80;74.40
3256;DHT22;1640;48.504;9.224;2024-03-07T15:09:03;8.60;74.10
3256;DHT22;1640;48.504;9.224;2024-03-07T15:11:36;8.40;72.30
3256;DHT22;1640;48.504;9.224;2024-03-07T15:14:06;8.10;73.40
3256;DHT22;1640;48.504;9.224;2024-03-07T15:16:34;7.90;73.50
3256;DHT22;1640;48.504;9.224;2024-03-07T15:19:03;7.80;72.80
3256;DHT22;1640;48.504;9.224;2024-03-07T15:21:31;7.80;72.30
3256;DHT22;1640;48.504;9.224;2024-03-07T15:24:00;7.80;70.80
3256;DHT22;1640;48.504;9.224;2024-03-07T15:26:27;7.90;70.20
3256;DHT22;1640;48.504;9.224;2024-03-07T15:28:57;7.90;70.90
3256;DHT22;1640;48.504;9.224;2024-03-07T15:31:25;7.90;71.60
3256;DHT22;1640;48.504;9.224;2024-03-07T15:33:53;7.80;73.40
3256;DHT22;1640;48.504;9.224;2024-03-07T15:36:21;7.80;70.50
3256;DHT22;1640;48.504;9.224;2024-03-07T15:38:49;7.80;70.30
3256;DHT22;1640;48.504;9.224;2024-03-07T15:41:18;7.90;71.30
3256;DHT22;1640;48.504;9.224;2024-03-07T15:43:45;7.90;70.30
3256;DHT22;1640;48.504;9.224;2024-03-07T15:46:13;7.90;71.90
3256;DHT22;1640;48.504;9.224;2024-03-07T15:48:45;8.00;71.90
3256;DHT22;1640;48.504;9.224;2024-03-07T15:51:14;8.00;72.20
3256;DHT22;1640;48.504;9.224;2024-03-07T15:53:41;8.10;70.50
3256;DHT22;1640;48.504;9.224;2024-03-07T15:56:08;8.10;71.60
3256;DHT22;1640;48.504;9.224;2024-03-07T15:58:37;7.90;72.10
3256;DHT22;1640;48.504;9.224;2024-03-07T16:01:05;7.80;68.30
3256;DHT22;1640;48.504;9.224;2024-03-07T16:03:33;7.90;70.50
3256;DHT22;1640;48.504;9.224;2024-03-07T16:06:00;8.00;71.20
3256;DHT22;1640;48.504;9.224;2024-03-07T16:08:28;8.20;71.10
3256;DHT22;1640;48.504;9.224;2024-03-07T16:10:55;8.30;71.20
3256;DHT22;1640;48.504;9.224;2024-03-07T16:13:23;8.30;73.20
3256;DHT22;1640;48.504;9.224;2024-03-07T16:15:51;8.40;73.10
3256;DHT22;1640;48.504;9.224;2024-03-07T16:18:19;8.40;73.50
3256;DHT22;1640;48.504;9.224;2024-03-07T16:20:49;8.40;73.80
3256;DHT22;1640;48.504;9.224;2024-03-07T16:23:17;8.10;73.50
3256;DHT22;1640;48.504;9.224;2024-03-07T16:25:44;8.10;72.50
3256;DHT22;1640;48.504;9.224;2024-03-07T16:28:11;8.00;72.50
3256;DHT22;1640;48.504;9.224;2024-03-07T16:30:39;7.90;72.30
3256;DHT22;1640;48.504;9.224;2024-03-07T16:33:11;7.80;70.60
3256;DHT22;1640;48.504;9.224;2024-03-07T16:35:40;7.80;70.00
3256;DHT22;1640;48.504;9.224;2024-03-07T16:38:08;7.70;69.00
3256;DHT22;1640;48.504;9.224;2024-03-07T16:40:36;7.70;68.80